Humidity-temperature Sensor

Selected Measurement Type: Relative Humidity

 
Relative Humidity [%]     6 entries per hour
Showing data from 6/27/2019 (00:00:00 Z) to 6/24/2019 (00:01:00 Z)
Previous Next [ Day | 3-Days | 7-Days ]
First Last
Prev [ Day | 3-Days | 7-Days ] Next
First Last

Start Time:     :
End Time:     :     
Time (in GMT) :00 :50 :40 :30 :20 :10
Previous Next [ Day | 3-Days | 7-Days ]
First Last
Prev [ Day | 3-Days | 7-Days ] Next
First Last


123 => good data
MM => data is determined as missing
-- => data not received/configured
Back to Top Back to Top
6/27/2019 00:00 to 23:10 93.17 92.18 89.81 89.58 88.91 89.01
6/26/2019 23:00 to 22:10 88.56 89.11 90.30 89.85 90.67 91.26
6/26/2019 22:00 to 21:10 90.67 91.37 90.87 92.18 93.04 91.82
6/26/2019 21:00 to 20:10 92.10 92.37 93.41 94.60 94.25 94.58
6/26/2019 20:00 to 19:10 94.68 95.20 94.83 93.35 94.79 94.95
6/26/2019 19:00 to 18:10 96.28 96.20 96.01 95.63 94.62 94.09
6/26/2019 18:00 to 17:10 93.56 92.78 90.67 89.83 91.39 91.30
6/26/2019 17:00 to 16:10 92.19 92.41 93.80 92.06 92.72 93.80
6/26/2019 16:00 to 15:10 93.64 92.90 92.86 93.72 94.52 95.40
6/26/2019 15:00 to 14:10 94.17 95.46 95.36 95.36 95.89 96.42
6/26/2019 14:00 to 13:10 96.67 96.81 96.51 97.00 96.20 96.42
6/26/2019 13:00 to 12:10 95.81 95.19 91.51 89.93 90.89 91.12
6/26/2019 12:00 to 11:10 91.84 90.44 88.23 87.86 87.74 85.82
6/26/2019 11:00 to 10:10 86.16 87.09 88.36 88.42 88.13 89.81
6/26/2019 10:00 to 9:10 90.16 89.36 87.45 87.05 87.00 86.61
6/26/2019 09:00 to 8:10 85.92 86.53 86.74 85.45 87.62 85.80
6/26/2019 08:00 to 7:10 83.93 84.87 84.63 85.02 85.55 84.98
6/26/2019 07:00 to 6:10 85.55 86.39 85.53 87.23 87.35 87.09
6/26/2019 06:00 to 5:10 87.05 86.53 87.29 86.98 86.29 85.43
6/26/2019 05:00 to 4:10 84.94 85.94 85.53 85.82 86.00 86.33
6/26/2019 04:00 to 3:10 86.68 88.48 88.40 87.93 88.03 88.36
6/26/2019 03:00 to 2:10 89.61 90.61 90.34 90.04 90.96 91.41
6/26/2019 02:00 to 1:10 84.53 85.84 86.33 86.25 86.62 87.00
6/26/2019 01:00 to 0:10 86.33 89.26 90.38 90.63 91.06 93.70
6/26/2019 00:00 to 23:10 91.69 92.27 83.77 81.74 81.88 81.64
6/25/2019 23:00 to 22:10 82.15 81.02 79.90 80.02 80.94 81.74
6/25/2019 22:00 to 21:10 79.98 80.45 80.96 81.11 80.29 80.74
6/25/2019 21:00 to 20:10 80.35 80.96 81.62 80.21 81.46 79.41
6/25/2019 20:00 to 19:10 79.31 79.55 80.02 81.78 79.67 80.39
6/25/2019 19:00 to 18:10 81.33 81.05 80.88 81.74 81.56 82.42
6/25/2019 18:00 to 17:10 82.64 83.44 82.01 83.40 82.89 83.01
6/25/2019 17:00 to 16:10 83.17 84.12 82.07 80.55 81.88 82.15
6/25/2019 16:00 to 15:10 81.35 81.58 81.76 82.17 81.45 82.19
6/25/2019 15:00 to 14:10 83.81 82.38 81.93 84.01 85.47 85.98
6/25/2019 14:00 to 13:10 84.92 84.46 84.85 85.20 81.89 82.17
6/25/2019 13:00 to 12:10 82.60 80.92 81.41 84.18 82.19 82.52
6/25/2019 12:00 to 11:10 82.56 83.95 84.28 84.10 83.24 83.46
6/25/2019 11:00 to 10:10 81.89 83.60 85.14 85.30 83.67 83.83
6/25/2019 10:00 to 9:10 83.71 83.58 84.44 83.93 84.40 82.52
6/25/2019 09:00 to 8:10 81.82 84.44 81.07 83.97 82.46 83.50
6/25/2019 08:00 to 7:10 83.81 84.61 84.34 83.77 81.74 82.21
6/25/2019 07:00 to 6:10 82.38 82.79 83.03 83.42 86.12 85.04
6/25/2019 06:00 to 5:10 83.54 81.11 81.09 81.37 82.70 82.60
6/25/2019 05:00 to 4:10 80.47 78.30 80.33 81.66 81.23 81.48
6/25/2019 04:00 to 3:10 80.84 82.03 81.89 80.06 80.47 79.30
6/25/2019 03:00 to 2:10 80.66 80.39 80.76 81.13 82.23 82.75
6/25/2019 02:00 to 1:10 83.77 85.92 83.11 84.40 84.53 83.46
6/25/2019 01:00 to 0:10 83.32 81.03 83.01 83.56 81.13 80.88
6/25/2019 00:00 to 23:10 81.00 81.64 82.97 82.66 85.06 83.75
6/24/2019 23:00 to 22:10 83.77 81.68 81.80 81.50 82.36 81.09
6/24/2019 22:00 to 21:10 81.19 80.47 83.30 82.64 81.88 82.68
6/24/2019 21:00 to 20:10 81.82 79.88 80.68 79.59 79.47 79.96
6/24/2019 20:00 to 19:10 78.98 80.19 79.65 79.04 79.59 80.16
6/24/2019 19:00 to 18:10 79.35 79.43 79.33 79.22 79.61 79.14
6/24/2019 18:00 to 17:10 78.71 78.28 79.41 78.88 80.17 82.79
6/24/2019 17:00 to 16:10 81.97 82.89 84.36 86.37 85.61 87.04
6/24/2019 16:00 to 15:10 87.90 88.34 86.90 83.71 81.25 80.45
6/24/2019 15:00 to 14:10 80.66 81.31 79.12 81.41 82.70 84.24
6/24/2019 14:00 to 13:10 84.65 83.50 82.13 82.40 81.56 82.48
6/24/2019 13:00 to 12:10 81.48 81.54 81.60 81.84 81.88 81.25
6/24/2019 12:00 to 11:10 82.15 80.41 80.66 79.74 81.00 81.17
6/24/2019 11:00 to 10:10 -- -- -- -- -- --
6/24/2019 10:00 to 9:10 -- -- -- -- -- --
6/24/2019 09:00 to 8:10 -- -- -- -- -- --
6/24/2019 08:00 to 7:10 -- -- -- -- -- --
6/24/2019 07:00 to 6:10 -- -- -- -- -- --
6/24/2019 06:00 to 5:10 -- -- -- -- -- --
6/24/2019 05:00 to 4:10 -- -- -- -- -- --
6/24/2019 04:00 to 3:10 -- -- -- -- -- --
6/24/2019 03:00 to 2:10 -- -- -- -- -- --
6/24/2019 02:00 to 1:10 -- -- -- -- -- --
6/24/2019 01:00 to 0:10 -- -- -- -- -- --